Time;durP1;ratioP1;P1;durP2;ratioP2;P2;SDS_P1;SDS_P2;PMS_P1;PMS_P2;Temp;Humidity;BMP_temperature;BMP_pressure;BME280_temperature;BME280_humidity;BME280_pressure;Samples;Min_cycle;Max_cycle;Signal;HPM_P1;HPM_P2
2023/11/17 00:00:40;;;;;;;12.55;8.80;;;7.10;99.90;;;;;;2083063;28;20075;-70
2023/11/17 00:01:40;;;;;;;12.50;9.25;;;7.10;99.90;;;;;;2085446;28;20029;-72
2023/11/17 00:02:41;;;;;;;13.00;9.52;;;7.10;99.90;;;;;;2083484;28;20472;-71
2023/11/17 00:03:42;;;;;;;12.20;9.38;;;7.10;99.90;;;;;;2084842;28;20082;-79
2023/11/17 00:04:43;;;;;;;13.50;9.63;;;7.10;99.90;;;;;;2091112;28;20107;-79
2023/11/17 00:05:43;;;;;;;12.80;9.23;;;7.10;99.90;;;;;;2088065;28;20402;-78
2023/11/17 00:06:45;;;;;;;15.02;9.38;;;7.10;99.90;;;;;;2078701;28;20451;-78
2023/11/17 00:07:45;;;;;;;11.90;8.38;;;7.10;99.90;;;;;;2074981;28;20029;-78
2023/11/17 00:08:46;;;;;;;11.15;7.65;;;7.10;99.90;;;;;;2076827;28;20515;-77
2023/11/17 00:09:46;;;;;;;9.60;7.07;;;7.00;99.90;;;;;;2082654;28;20387;-78
2023/11/17 00:10:47;;;;;;;12.32;7.28;;;7.00;99.90;;;;;;2085125;28;20048;-78
2023/11/17 00:11:48;;;;;;;9.68;6.82;;;7.00;99.90;;;;;;2083280;28;20041;-78
2023/11/17 00:12:48;;;;;;;11.32;6.95;;;7.10;99.90;;;;;;2083218;28;20029;-78
2023/11/17 00:13:49;;;;;;;10.48;6.47;;;7.00;99.90;;;;;;2084578;28;20033;-78
2023/11/17 00:14:50;;;;;;;10.10;6.78;;;7.00;99.90;;;;;;2081625;28;20087;-78
2023/11/17 00:15:51;;;;;;;10.27;6.43;;;7.00;99.90;;;;;;2083254;28;20036;-78
2023/11/17 00:16:52;;;;;;;9.38;6.30;;;7.00;99.90;;;;;;2082911;28;20029;-77
2023/11/17 00:17:52;;;;;;;10.05;6.88;;;6.90;99.90;;;;;;2079645;28;20034;-79
2023/11/17 00:18:53;;;;;;;13.35;6.90;;;6.90;99.90;;;;;;2084179;28;20591;-79
2023/11/17 00:19:53;;;;;;;13.32;6.97;;;6.80;99.90;;;;;;2083860;28;20067;-78
2023/11/17 00:20:54;;;;;;;9.68;7.05;;;6.90;99.90;;;;;;2084646;28;20706;-79
2023/11/17 00:21:55;;;;;;;12.00;7.47;;;6.90;99.90;;;;;;2083908;28;20573;-79
2023/11/17 00:22:55;;;;;;;10.35;6.47;;;6.90;99.90;;;;;;2084223;28;20362;-79
2023/11/17 00:23:56;;;;;;;9.30;6.50;;;6.90;99.90;;;;;;2080105;28;20028;-79
2023/11/17 00:24:56;;;;;;;9.57;6.57;;;6.90;99.90;;;;;;2080435;28;20698;-78
2023/11/17 00:25:57;;;;;;;10.13;6.60;;;6.90;99.90;;;;;;2073116;28;20026;-79
2023/11/17 00:26:59;;;;;;;8.43;6.15;;;6.90;99.90;;;;;;2074298;28;20033;-79
2023/11/17 00:27:59;;;;;;;13.00;6.85;;;6.90;99.90;;;;;;2077614;28;20104;-79
2023/11/17 00:29:00;;;;;;;11.52;7.38;;;6.90;99.90;;;;;;2082987;28;20062;-78
2023/11/17 00:30:01;;;;;;;10.60;6.90;;;6.90;99.90;;;;;;2082878;28;20042;-78
2023/11/17 00:31:04;;;;;;;9.15;7.28;;;6.90;99.90;;;;;;2080911;28;20037;-78
2023/11/17 00:32:06;;;;;;;8.52;7.00;;;6.80;99.90;;;;;;2081134;28;20029;-79
2023/11/17 00:33:08;;;;;;;10.88;6.88;;;6.90;99.90;;;;;;2071715;28;20455;-78
2023/11/17 00:34:09;;;;;;;10.90;6.53;;;6.80;99.90;;;;;;2075355;28;20037;-78
2023/11/17 00:35:09;;;;;;;9.40;7.03;;;6.90;99.90;;;;;;2081491;28;20029;-77
2023/11/17 00:36:10;;;;;;;11.32;6.90;;;6.90;99.90;;;;;;2082464;28;20021;-78
2023/11/17 00:37:11;;;;;;;11.02;6.70;;;6.90;99.90;;;;;;2088851;28;20021;-78
2023/11/17 00:38:12;;;;;;;10.55;6.30;;;6.90;99.90;;;;;;2086199;28;20050;-77
2023/11/17 00:39:14;;;;;;;11.80;6.82;;;6.90;99.90;;;;;;2088464;28;20032;-77
2023/11/17 00:40:15;;;;;;;11.70;6.63;;;6.80;99.90;;;;;;2090199;28;20111;-78
2023/11/17 00:41:16;;;;;;;8.85;6.10;;;6.80;99.90;;;;;;2069060;28;20025;-78
2023/11/17 00:42:18;;;;;;;10.40;6.30;;;6.70;99.90;;;;;;2071356;28;20025;-78
2023/11/17 00:43:18;;;;;;;11.38;6.40;;;6.70;99.90;;;;;;2071437;28;20025;-78
2023/11/17 00:44:19;;;;;;;10.68;6.40;;;6.70;99.90;;;;;;2065491;28;20411;-78
2023/11/17 00:45:20;;;;;;;9.30;6.30;;;6.70;99.90;;;;;;2071042;28;20053;-78
2023/11/17 00:46:21;;;;;;;9.00;6.38;;;6.60;99.90;;;;;;2082590;28;20020;-79
2023/11/17 00:47:21;;;;;;;9.60;6.35;;;6.60;99.90;;;;;;2080232;28;20285;-79
2023/11/17 00:48:32;;;;;;;10.23;6.28;;;6.50;99.90;;;;;;2082598;28;20029;-79
2023/11/17 00:49:32;;;;;;;11.40;6.90;;;6.50;99.90;;;;;;2076936;28;20055;-78
2023/11/17 00:50:34;;;;;;;9.43;6.40;;;6.50;99.90;;;;;;2074795;28;20025;-78
2023/11/17 00:51:35;;;;;;;11.93;6.97;;;6.60;99.90;;;;;;2075028;28;20255;-79
2023/11/17 00:52:38;;;;;;;12.20;6.90;;;6.60;99.90;;;;;;2082877;28;20044;-76
2023/11/17 00:53:39;;;;;;;9.00;6.28;;;6.70;99.90;;;;;;2088408;28;20047;-78
2023/11/17 00:54:42;;;;;;;9.45;6.18;;;6.70;99.90;;;;;;2091431;28;20036;-78
2023/11/17 00:55:43;;;;;;;10.70;6.28;;;6.70;99.90;;;;;;2083173;28;20025;-78
2023/11/17 00:56:44;;;;;;;11.82;5.95;;;6.70;99.90;;;;;;2081540;28;20123;-78
2023/11/17 00:57:44;;;;;;;11.07;5.85;;;6.70;99.90;;;;;;2081372;28;20033;-78
2023/11/17 00:58:45;;;;;;;8.98;5.80;;;6.70;99.90;;;;;;2083060;28;20171;-78
2023/11/17 00:59:47;;;;;;;9.32;5.50;;;6.70;99.90;;;;;;2082797;28;20414;-80
2023/11/17 01:00:48;;;;;;;10.20;5.82;;;6.70;99.90;;;;;;2087595;28;20502;-78
2023/11/17 01:01:49;;;;;;;8.32;5.47;;;6.70;99.90;;;;;;2080769;28;20056;-79
2023/11/17 01:02:50;;;;;;;11.55;5.70;;;6.60;99.90;;;;;;2076081;28;20025;-79
2023/11/17 01:03:51;;;;;;;8.38;5.38;;;6.60;99.90;;;;;;2068798;28;20037;-78
2023/11/17 01:04:52;;;;;;;10.27;5.30;;;6.60;99.90;;;;;;2062128;28;20030;-78
2023/11/17 01:05:52;;;;;;;8.98;5.50;;;6.60;99.90;;;;;;2078985;28;20825;-78
2023/11/17 01:06:56;;;;;;;8.23;5.40;;;6.60;99.90;;;;;;2091168;28;20040;-78
2023/11/17 01:07:57;;;;;;;10.02;5.30;;;6.50;99.90;;;;;;2083753;28;20033;-79
2023/11/17 01:08:57;;;;;;;9.52;5.63;;;6.50;99.90;;;;;;2083755;28;20364;-78
2023/11/17 01:09:58;;;;;;;8.10;5.22;;;6.40;99.90;;;;;;2090922;28;20408;-79
2023/11/17 01:10:59;;;;;;;9.35;5.72;;;6.40;99.90;;;;;;2090454;28;20024;-79
2023/11/17 01:12:00;;;;;;;13.77;5.93;;;6.30;99.90;;;;;;2077709;28;20529;-79
2023/11/17 01:13:01;;;;;;;8.68;5.70;;;6.50;99.90;;;;;;2074666;28;20025;-79
2023/11/17 01:14:03;;;;;;;9.88;6.00;;;6.40;99.90;;;;;;2082654;28;20028;-78
2023/11/17 01:15:04;;;;;;;10.52;5.90;;;6.40;99.90;;;;;;2083796;28;20037;-79
2023/11/17 01:16:05;;;;;;;11.10;5.57;;;6.30;99.90;;;;;;2082991;28;20036;-78
2023/11/17 01:17:06;;;;;;;9.35;6.20;;;6.20;99.90;;;;;;2083004;28;20464;-78
2023/11/17 01:18:08;;;;;;;9.40;6.25;;;6.20;99.90;;;;;;2082855;28;20040;-78
2023/11/17 01:19:10;;;;;;;10.45;6.07;;;6.20;99.90;;;;;;2079268;28;20021;-78
2023/11/17 01:20:10;;;;;;;9.93;5.80;;;6.20;99.90;;;;;;2091040;28;20079;-78
2023/11/17 01:21:11;;;;;;;10.35;6.10;;;6.10;99.90;;;;;;2084010;28;20025;-76
2023/11/17 01:22:12;;;;;;;13.68;6.22;;;6.10;99.90;;;;;;2091203;28;20035;-77
2023/11/17 01:23:14;;;;;;;11.02;6.28;;;6.00;99.90;;;;;;2082032;28;20061;-79
2023/11/17 01:24:15;;;;;;;9.45;6.35;;;6.00;99.90;;;;;;2064156;28;20022;-78
2023/11/17 01:25:16;;;;;;;9.50;6.47;;;6.00;99.90;;;;;;2070653;28;20400;-77
2023/11/17 01:26:17;;;;;;;9.27;6.00;;;6.00;99.90;;;;;;2082974;28;20227;-77
2023/11/17 01:27:18;;;;;;;9.27;6.20;;;6.00;99.90;;;;;;2082390;28;20036;-77
2023/11/17 01:28:19;;;;;;;11.60;6.68;;;6.00;99.90;;;;;;2088745;28;20573;-77
2023/11/17 01:29:20;;;;;;;11.13;6.90;;;6.00;99.90;;;;;;2091163;28;20029;-78
2023/11/17 01:30:20;;;;;;;11.20;6.65;;;6.00;99.90;;;;;;2083830;28;20020;-78
2023/11/17 01:31:21;;;;;;;10.10;6.88;;;5.90;99.90;;;;;;2083470;28;20478;-80
2023/11/17 01:32:23;;;;;;;10.88;6.75;;;5.90;99.90;;;;;;2091394;28;20064;-79
2023/11/17 01:33:24;;;;;;;10.18;6.50;;;5.90;99.90;;;;;;2076561;28;20033;-79
2023/11/17 01:34:27;;;;;;;13.18;7.07;;;5.80;99.90;;;;;;2074973;28;20025;-78
2023/11/17 01:35:27;;;;;;;11.30;7.10;;;5.80;99.90;;;;;;2082840;28;20502;-79
2023/11/17 01:36:28;;;;;;;11.35;6.82;;;5.80;99.90;;;;;;2088298;28;20870;-78
2023/11/17 01:37:29;;;;;;;12.82;7.60;;;5.80;99.90;;;;;;2094800;28;20052;-78
2023/11/17 01:38:30;;;;;;;11.25;6.70;;;5.90;99.90;;;;;;2095267;28;20032;-76
2023/11/17 01:39:30;;;;;;;10.27;6.88;;;5.90;99.90;;;;;;2086428;28;20036;-77
2023/11/17 01:40:31;;;;;;;10.98;6.90;;;5.90;99.90;;;;;;2079437;28;20025;-77
2023/11/17 01:41:32;;;;;;;13.27;7.30;;;6.00;99.90;;;;;;2080279;28;20388;-77
2023/11/17 01:42:33;;;;;;;10.55;6.90;;;6.00;99.90;;;;;;2083384;28;20068;-80
2023/11/17 01:43:33;;;;;;;14.10;7.50;;;6.00;99.90;;;;;;2082448;28;20040;-80
2023/11/17 01:44:34;;;;;;;10.43;7.07;;;6.00;99.90;;;;;;2071526;28;20026;-79
2023/11/17 01:45:36;;;;;;;13.90;7.22;;;6.00;99.90;;;;;;2063035;28;20022;-79
2023/11/17 01:46:36;;;;;;;14.75;7.28;;;6.00;99.90;;;;;;2078417;28;20072;-79
2023/11/17 01:47:39;;;;;;;12.60;6.88;;;6.00;99.90;;;;;;2082446;28;20147;-79
2023/11/17 01:48:40;;;;;;;11.15;7.13;;;6.00;99.90;;;;;;2078890;28;20029;-78
2023/11/17 01:49:41;;;;;;;12.07;6.82;;;5.90;99.90;;;;;;2078531;28;20404;-79
2023/11/17 01:50:42;;;;;;;12.50;6.97;;;5.90;99.90;;;;;;2079163;28;20039;-80
2023/11/17 01:51:43;;;;;;;11.07;6.85;;;5.90;99.90;;;;;;2079515;28;20029;-79
2023/11/17 01:52:44;;;;;;;9.57;6.38;;;5.90;99.90;;;;;;2082657;28;20655;-79
2023/11/17 01:53:46;;;;;;;10.40;6.43;;;5.90;99.90;;;;;;2074475;28;20036;-79
2023/11/17 01:54:48;;;;;;;8.25;6.25;;;5.90;99.90;;;;;;2074629;28;20079;-79
2023/11/17 01:55:49;;;;;;;11.77;6.43;;;5.80;99.90;;;;;;2081761;28;20033;-78
2023/11/17 01:56:52;;;;;;;9.60;6.20;;;5.80;99.90;;;;;;2079989;28;20063;-79
2023/11/17 01:57:54;;;;;;;9.35;6.40;;;5.80;99.90;;;;;;2083211;28;20017;-78
2023/11/17 01:58:55;;;;;;;9.65;6.40;;;5.80;99.90;;;;;;2090703;28;20565;-77
2023/11/17 01:59:56;;;;;;;8.30;6.10;;;5.70;99.90;;;;;;2082921;28;20132;-78
2023/11/17 02:00:56;;;;;;;9.77;6.38;;;5.70;99.90;;;;;;2070974;28;20040;-79
2023/11/17 02:01:57;;;;;;;11.45;6.47;;;5.70;99.90;;;;;;2076882;28;20810;-78
2023/11/17 02:03:00;;;;;;;10.70;6.68;;;5.70;99.90;;;;;;2085393;28;20125;-78
2023/11/17 02:04:02;;;;;;;12.43;6.75;;;5.70;99.90;;;;;;2083682;28;20048;-78
2023/11/17 02:05:03;;;;;;;9.95;6.50;;;5.60;99.90;;;;;;2089795;28;20021;-78
2023/11/17 02:06:22;;;;;;;9.90;6.57;;;5.60;99.90;;;;;;2085782;28;20098;-78
2023/11/17 02:07:29;;;;;;;13.60;7.10;;;5.60;99.90;;;;;;2074929;28;20033;-79
2023/11/17 02:08:42;;;;;;;10.00;6.78;;;5.60;99.90;;;;;;2066769;28;20441;-78
2023/11/17 02:10:01;;;;;;;9.52;6.75;;;5.60;99.90;;;;;;2072416;28;20022;-79
2023/11/17 02:11:30;;;;;;;10.40;7.00;;;5.60;99.90;;;;;;2090133;28;20626;-78
2023/11/17 02:12:46;;;;;;;11.00;6.70;;;5.60;99.90;;;;;;2090039;28;20043;-79
2023/11/17 02:14:13;;;;;;;9.80;7.20;;;5.60;99.90;;;;;;2075763;28;20478;-79
2023/11/17 02:15:17;;;;;;;10.90;7.30;;;5.60;99.90;;;;;;2074234;28;20450;-79
2023/11/17 02:16:24;;;;;;;10.30;7.00;;;5.60;99.90;;;;;;2074668;28;20029;-78
2023/11/17 02:17:28;;;;;;;11.20;7.00;;;5.60;99.90;;;;;;2082662;28;20013;-78
2023/11/17 02:18:34;;;;;;;13.35;7.32;;;5.60;99.90;;;;;;2077552;28;20112;-78
2023/11/17 02:19:38;;;;;;;11.13;7.05;;;5.60;99.90;;;;;;2074121;28;20538;-78
2023/11/17 02:20:41;;;;;;;10.60;6.95;;;5.60;99.90;;;;;;2066791;28;20129;-77
2023/11/17 02:21:44;;;;;;;10.82;6.75;;;5.60;99.90;;;;;;2070460;28;20026;-77
2023/11/17 02:22:48;;;;;;;10.82;6.53;;;5.50;99.90;;;;;;2083249;28;20389;-77
2023/11/17 02:23:53;;;;;;;11.23;6.57;;;5.40;99.90;;;;;;2090928;28;20121;-80
2023/11/17 02:25:01;;;;;;;11.55;6.82;;;5.40;99.90;;;;;;2090830;28;20059;-78
2023/11/17 02:26:17;;;;;;;12.35;6.60;;;5.40;99.90;;;;;;2079866;28;20030;-78
2023/11/17 02:27:28;;;;;;;10.90;6.13;;;5.40;99.90;;;;;;2079273;28;20037;-78
2023/11/17 02:29:00;;;;;;;11.20;7.07;;;5.40;99.90;;;;;;2082716;28;20040;-76
2023/11/17 02:30:03;;;;;;;10.15;6.47;;;5.40;99.90;;;;;;2085754;28;20033;-77
2023/11/17 02:31:15;;;;;;;10.80;6.70;;;5.40;99.90;;;;;;2082036;28;20036;-78
2023/11/17 02:32:16;;;;;;;11.05;6.78;;;5.40;99.90;;;;;;2082181;28;20025;-78
2023/11/17 02:33:17;;;;;;;12.98;6.57;;;5.30;99.90;;;;;;2085670;28;20036;-78
2023/11/17 02:34:24;;;;;;;9.77;6.30;;;5.30;99.90;;;;;;2090327;28;20572;-78
2023/11/17 02:35:28;;;;;;;10.80;6.78;;;5.30;99.90;;;;;;2077935;28;20036;-77
2023/11/17 02:36:32;;;;;;;10.55;6.18;;;5.30;99.90;;;;;;2087388;28;20029;-77
2023/11/17 02:37:33;;;;;;;12.07;7.07;;;5.30;99.90;;;;;;2082704;28;20078;-78
2023/11/17 02:38:34;;;;;;;10.18;6.72;;;5.20;99.90;;;;;;2082675;28;20556;-78
2023/11/17 02:39:38;;;;;;;11.68;6.93;;;5.20;99.90;;;;;;2090655;28;20036;-79
2023/11/17 02:40:39;;;;;;;10.88;6.80;;;5.20;99.90;;;;;;2075873;28;20029;-79
2023/11/17 02:41:47;;;;;;;12.32;7.50;;;5.20;99.90;;;;;;2082423;28;20459;-77
2023/11/17 02:42:48;;;;;;;11.85;7.13;;;5.20;99.90;;;;;;2076425;28;20025;-78
2023/11/17 02:43:49;;;;;;;11.45;6.50;;;5.20;99.90;;;;;;2080969;28;20028;-78
2023/11/17 02:44:50;;;;;;;12.02;6.80;;;5.20;99.90;;;;;;2080013;28;20537;-78
2023/11/17 02:45:52;;;;;;;11.30;6.65;;;5.20;99.90;;;;;;2084253;28;20056;-78
2023/11/17 02:46:58;;;;;;;9.93;6.82;;;5.20;99.90;;;;;;2082996;28;20032;-78
2023/11/17 02:47:59;;;;;;;11.88;6.88;;;5.20;99.90;;;;;;2087752;28;20083;-79
2023/11/17 02:49:04;;;;;;;11.80;7.43;;;5.20;99.90;;;;;;2091289;28;20040;-79
2023/11/17 02:50:10;;;;;;;15.25;7.90;;;5.20;99.90;;;;;;2089059;28;20044;-78
2023/11/17 02:51:20;;;;;;;12.07;7.00;;;5.20;99.90;;;;;;2089571;28;20039;-79
2023/11/17 02:53:00;;;;;;;14.35;7.80;;;5.20;99.90;;;;;;2084939;28;20029;-78
2023/11/17 02:54:08;;;;;;;10.85;7.93;;;5.10;99.90;;;;;;2090442;28;20549;-78
2023/11/17 02:55:13;;;;;;;12.40;7.53;;;5.20;99.90;;;;;;2076139;28;20065;-78
2023/11/17 02:56:15;;;;;;;11.63;7.38;;;5.10;99.90;;;;;;2073807;28;20033;-77
2023/11/17 02:57:17;;;;;;;9.95;6.97;;;5.10;99.90;;;;;;2083257;28;20025;-79
2023/11/17 02:58:18;;;;;;;12.45;7.43;;;5.10;99.90;;;;;;2083233;28;20056;-78
2023/11/17 02:59:19;;;;;;;11.30;7.18;;;5.10;99.90;;;;;;2090016;28;20028;-79
2023/11/17 03:00:22;;;;;;;13.15;7.15;;;5.10;99.90;;;;;;2083911;28;20487;-79
2023/11/17 03:01:24;;;;;;;15.50;7.75;;;5.00;99.90;;;;;;2072215;28;20034;-79
2023/11/17 03:02:25;;;;;;;10.55;7.70;;;5.00;99.90;;;;;;2079292;28;20028;-79
2023/11/17 03:03:26;;;;;;;11.00;7.55;;;5.00;99.90;;;;;;2088796;28;20407;-79
2023/11/17 03:04:27;;;;;;;12.35;7.75;;;4.90;99.90;;;;;;2087194;28;20040;-79
2023/11/17 03:05:28;;;;;;;12.65;7.90;;;4.90;99.90;;;;;;2074255;28;20116;-79
2023/11/17 03:06:31;;;;;;;10.63;7.53;;;4.90;99.90;;;;;;2077668;28;20037;-77
2023/11/17 03:07:34;;;;;;;14.48;8.10;;;4.90;99.90;;;;;;2083540;28;20544;-77
2023/11/17 03:08:35;;;;;;;11.73;7.85;;;4.90;99.90;;;;;;2083754;28;20029;-79
2023/11/17 03:09:36;;;;;;;13.25;8.02;;;4.90;99.90;;;;;;2084771;28;20079;-78
2023/11/17 03:10:37;;;;;;;11.95;7.95;;;4.80;99.90;;;;;;2072235;28;20033;-78
2023/11/17 03:11:37;;;;;;;13.10;8.27;;;4.80;99.90;;;;;;2067332;28;20034;-79
2023/11/17 03:12:38;;;;;;;11.38;7.85;;;4.80;99.90;;;;;;2080569;28;20030;-79
2023/11/17 03:13:39;;;;;;;13.50;8.13;;;4.80;99.90;;;;;;2084631;28;20025;-78
2023/11/17 03:14:40;;;;;;;11.90;8.10;;;4.80;99.90;;;;;;2079902;28;20372;-78
2023/11/17 03:15:41;;;;;;;15.35;8.30;;;4.80;99.90;;;;;;2071658;28;20037;-77
2023/11/17 03:16:42;;;;;;;12.25;8.20;;;4.80;99.90;;;;;;2083000;28;20025;-77
2023/11/17 03:17:42;;;;;;;11.52;7.80;;;4.70;99.90;;;;;;2075761;28;20522;-76
2023/11/17 03:18:44;;;;;;;15.55;8.45;;;4.70;99.90;;;;;;2084305;28;20035;-79
2023/11/17 03:19:45;;;;;;;12.35;8.70;;;4.70;99.90;;;;;;2085223;28;20025;-77
2023/11/17 03:20:46;;;;;;;12.50;8.02;;;4.70;99.90;;;;;;2084141;28;20029;-78
2023/11/17 03:21:46;;;;;;;12.52;8.30;;;4.70;99.90;;;;;;2087134;28;20108;-77
2023/11/17 03:22:47;;;;;;;12.20;7.90;;;4.70;99.90;;;;;;2091020;28;20020;-78
2023/11/17 03:23:50;;;;;;;14.38;8.70;;;4.70;99.90;;;;;;2080370;28;20648;-77
2023/11/17 03:24:51;;;;;;;13.93;8.68;;;4.70;99.90;;;;;;2080576;28;20071;-78
2023/11/17 03:25:53;;;;;;;13.13;8.43;;;4.70;99.90;;;;;;2083609;28;20553;-79
2023/11/17 03:26:56;;;;;;;12.02;7.85;;;4.70;99.90;;;;;;2085410;28;20036;-77
2023/11/17 03:27:57;;;;;;;12.55;7.95;;;4.70;99.90;;;;;;2077805;28;20429;-78
2023/11/17 03:29:04;;;;;;;12.73;8.60;;;4.70;99.90;;;;;;2083758;28;20025;-77
2023/11/17 03:30:09;;;;;;;17.20;8.68;;;4.70;99.90;;;;;;2075445;28;20021;-78
2023/11/17 03:31:14;;;;;;;13.80;8.50;;;4.70;99.90;;;;;;2076189;28;20040;-78
2023/11/17 03:32:16;;;;;;;13.10;8.50;;;4.70;99.90;;;;;;2091376;28;20020;-77
2023/11/17 03:33:17;;;;;;;13.52;8.68;;;4.70;99.90;;;;;;2079943;28;20546;-78
2023/11/17 03:34:31;;;;;;;12.98;8.75;;;4.70;99.90;;;;;;2073929;28;20029;-77
2023/11/17 03:35:31;;;;;;;12.52;8.80;;;4.70;99.90;;;;;;2083595;28;20032;-77
2023/11/17 03:36:32;;;;;;;15.45;8.50;;;4.80;99.90;;;;;;2081035;28;20060;-79
2023/11/17 03:37:33;;;;;;;14.00;8.52;;;4.80;99.90;;;;;;2078223;28;20025;-79
2023/11/17 03:38:33;;;;;;;14.25;7.93;;;4.80;99.90;;;;;;2092206;28;20523;-78
2023/11/17 03:39:42;;;;;;;12.43;8.13;;;4.80;99.90;;;;;;2082086;28;20192;-78
2023/11/17 03:40:46;;;;;;;14.57;8.70;;;4.80;99.90;;;;;;2083698;28;20025;-78
2023/11/17 03:41:46;;;;;;;12.25;8.10;;;4.80;99.90;;;;;;2075210;28;20029;-78
2023/11/17 03:42:47;;;;;;;13.82;8.77;;;4.70;99.90;;;;;;2070246;28;20033;-78
2023/11/17 03:43:48;;;;;;;13.57;8.82;;;4.70;99.90;;;;;;2081211;28;20535;-78
2023/11/17 03:44:48;;;;;;;13.65;8.30;;;4.70;99.90;;;;;;2091634;28;20086;-77
2023/11/17 03:45:49;;;;;;;15.40;8.35;;;4.70;99.90;;;;;;2080477;28;20033;-77
2023/11/17 03:46:50;;;;;;;15.52;8.45;;;4.70;99.90;;;;;;2063898;28;20030;-77
2023/11/17 03:47:52;;;;;;;15.25;8.70;;;4.70;99.90;;;;;;2082426;28;20045;-78
2023/11/17 03:48:53;;;;;;;15.93;9.38;;;4.70;99.90;;;;;;2077354;28;20022;-77
2023/11/17 03:49:54;;;;;;;14.57;9.10;;;4.70;99.90;;;;;;2079827;28;20032;-78
2023/11/17 03:50:54;;;;;;;13.43;8.65;;;4.70;99.90;;;;;;2085693;28;20029;-78
2023/11/17 03:51:55;;;;;;;14.65;9.13;;;4.70;99.90;;;;;;2086889;28;20372;-78
2023/11/17 03:52:55;;;;;;;15.35;9.10;;;4.80;99.90;;;;;;2082927;28;20526;-77
2023/11/17 03:53:56;;;;;;;14.75;8.68;;;4.80;99.90;;;;;;2080878;28;20033;-78
2023/11/17 03:55:00;;;;;;;13.85;9.20;;;4.80;99.90;;;;;;2092120;28;20032;-78
2023/11/17 03:56:00;;;;;;;15.45;8.55;;;4.90;99.90;;;;;;2083753;28;20033;-78
2023/11/17 03:57:03;;;;;;;15.00;9.45;;;4.90;99.90;;;;;;2084848;28;20556;-78
2023/11/17 03:58:05;;;;;;;14.32;9.00;;;4.90;99.90;;;;;;2084824;28;20029;-78
2023/11/17 03:59:09;;;;;;;14.32;9.63;;;5.00;99.90;;;;;;2084753;28;20052;-78
2023/11/17 04:00:15;;;;;;;13.30;9.35;;;5.00;99.90;;;;;;2085235;28;20059;-78
2023/11/17 04:01:15;;;;;;;14.02;8.98;;;5.00;99.90;;;;;;2081189;28;20040;-76
2023/11/17 04:02:16;;;;;;;14.55;9.52;;;5.00;99.90;;;;;;2079920;28;20104;-77
2023/11/17 04:03:22;;;;;;;14.38;9.10;;;5.00;99.90;;;;;;2076638;28;20029;-77
2023/11/17 04:04:25;;;;;;;20.95;9.90;;;5.10;99.90;;;;;;2081344;28;20071;-78
2023/11/17 04:05:26;;;;;;;15.00;9.65;;;5.00;99.90;;;;;;2076141;28;20365;-77
2023/11/17 04:06:28;;;;;;;16.45;10.35;;;5.00;99.90;;;;;;2081839;28;20055;-77
2023/11/17 04:07:28;;;;;;;15.20;9.88;;;4.90;99.90;;;;;;2078314;28;20099;-77
2023/11/17 04:08:29;;;;;;;16.52;10.68;;;5.00;99.90;;;;;;2081356;28;20054;-77
2023/11/17 04:09:29;;;;;;;15.70;10.60;;;4.90;99.90;;;;;;2078199;28;20026;-77
2023/11/17 04:10:30;;;;;;;14.88;9.93;;;5.00;99.90;;;;;;2081737;28;20168;-76
2023/11/17 04:11:31;;;;;;;16.55;10.20;;;5.00;99.90;;;;;;2086337;28;20143;-78
2023/11/17 04:12:34;;;;;;;20.25;10.80;;;5.00;99.90;;;;;;2086117;28;20033;-78
2023/11/17 04:13:39;;;;;;;16.50;11.05;;;5.00;99.90;;;;;;2073272;28;20112;-77
2023/11/17 04:14:40;;;;;;;16.67;10.77;;;5.00;99.90;;;;;;2080842;28;20024;-78
2023/11/17 04:15:42;;;;;;;16.23;11.50;;;5.00;99.90;;;;;;2083251;28;20035;-77
2023/11/17 04:16:46;;;;;;;17.67;11.00;;;5.00;99.90;;;;;;2071873;28;20026;-77
2023/11/17 04:17:47;;;;;;;15.85;11.13;;;5.00;99.90;;;;;;2066464;28;20030;-77
2023/11/17 04:18:48;;;;;;;16.70;11.52;;;5.00;99.90;;;;;;2075281;28;20482;-77
2023/11/17 04:19:49;;;;;;;15.90;11.00;;;5.00;99.90;;;;;;2084260;28;20098;-77
2023/11/17 04:20:53;;;;;;;16.30;11.20;;;5.00;99.90;;;;;;2083269;28;20482;-77
2023/11/17 04:21:53;;;;;;;16.02;11.20;;;5.00;99.90;;;;;;2092304;28;20082;-76
2023/11/17 04:22:54;;;;;;;15.35;11.60;;;4.90;99.90;;;;;;2091485;28;20509;-78
2023/11/17 04:23:55;;;;;;;15.90;11.18;;;5.00;99.90;;;;;;2087643;28;20035;-78
2023/11/17 04:24:56;;;;;;;16.70;11.45;;;5.00;99.90;;;;;;2089410;28;20614;-77
2023/11/17 04:25:57;;;;;;;16.23;11.45;;;4.90;99.90;;;;;;2079885;28;20056;-76
2023/11/17 04:26:58;;;;;;;15.82;11.27;;;4.90;99.90;;;;;;2087809;28;20035;-76
2023/11/17 04:27:58;;;;;;;14.60;11.18;;;4.90;99.90;;;;;;2093369;28;20040;-77
2023/11/17 04:28:59;;;;;;;16.30;12.25;;;4.90;99.90;;;;;;2085693;28;20086;-78
2023/11/17 04:30:00;;;;;;;16.02;11.73;;;4.80;99.90;;;;;;2083751;28;20033;-77
2023/11/17 04:31:00;;;;;;;16.52;12.20;;;4.80;99.90;;;;;;2086584;28;20060;-77
2023/11/17 04:32:01;;;;;;;16.50;12.63;;;4.70;99.90;;;;;;2086022;28;20406;-78
2023/11/17 04:33:02;;;;;;;18.48;12.95;;;4.70;99.90;;;;;;2084196;28;20119;-78
2023/11/17 04:34:02;;;;;;;17.08;12.52;;;4.70;99.90;;;;;;2084107;28;20170;-78
2023/11/17 04:35:03;;;;;;;18.65;13.32;;;4.70;99.90;;;;;;2077103;28;20121;-78
2023/11/17 04:36:04;;;;;;;17.33;13.60;;;4.70;99.90;;;;;;2079571;28;20035;-78
2023/11/17 04:37:05;;;;;;;20.23;14.35;;;4.70;99.90;;;;;;2081478;28;20044;-78
2023/11/17 04:38:06;;;;;;;18.17;13.73;;;4.70;99.90;;;;;;2083080;28;20686;-78
2023/11/17 04:39:11;;;;;;;20.35;14.43;;;4.60;99.90;;;;;;2082400;28;20037;-77
2023/11/17 04:40:13;;;;;;;19.40;13.68;;;4.70;99.90;;;;;;2087876;28;20035;-77
2023/11/17 04:41:13;;;;;;;18.73;13.75;;;4.60;99.90;;;;;;2086638;28;20033;-78
2023/11/17 04:42:14;;;;;;;18.38;13.50;;;4.70;99.90;;;;;;2076023;28;20056;-78
2023/11/17 04:43:15;;;;;;;17.77;13.70;;;4.60;99.90;;;;;;2083225;28;20017;-78
2023/11/17 04:44:17;;;;;;;18.17;13.55;;;4.60;99.90;;;;;;2079522;28;20053;-79
2023/11/17 04:45:17;;;;;;;19.55;13.85;;;4.70;99.90;;;;;;2079695;28;20029;-78
2023/11/17 04:46:19;;;;;;;18.42;13.73;;;4.60;99.90;;;;;;2081427;28;20048;-78
2023/11/17 04:47:19;;;;;;;20.77;13.88;;;4.60;99.90;;;;;;2091507;28;20040;-77
2023/11/17 04:48:20;;;;;;;17.38;12.57;;;4.60;99.90;;;;;;2091056;28;20099;-78
2023/11/17 04:49:21;;;;;;;17.02;13.32;;;4.60;99.90;;;;;;2083029;28;20600;-78
2023/11/17 04:50:21;;;;;;;20.25;13.35;;;4.60;99.90;;;;;;2074917;28;20116;-77
2023/11/17 04:51:22;;;;;;;17.60;13.90;;;4.60;99.90;;;;;;2080515;28;20113;-77
2023/11/17 04:52:22;;;;;;;20.38;14.68;;;4.50;99.90;;;;;;2086436;28;20032;-80
2023/11/17 04:53:23;;;;;;;18.95;14.50;;;4.50;99.90;;;;;;2087881;28;20505;-78
2023/11/17 04:54:24;;;;;;;18.30;14.30;;;4.50;99.90;;;;;;2083824;28;20043;-78
2023/11/17 04:55:24;;;;;;;19.48;14.07;;;4.50;99.90;;;;;;2081428;28;20502;-78
2023/11/17 04:56:27;;;;;;;18.50;14.32;;;4.50;99.90;;;;;;2074860;28;20084;-78
2023/11/17 04:57:27;;;;;;;20.15;14.23;;;4.60;99.90;;;;;;2070905;28;20039;-77
2023/11/17 04:58:29;;;;;;;18.80;14.30;;;4.50;99.90;;;;;;2066691;28;20059;-79
2023/11/17 04:59:29;;;;;;;20.70;14.43;;;4.60;99.90;;;;;;2075333;28;20029;-78
2023/11/17 05:00:33;;;;;;;19.00;14.15;;;4.60;99.90;;;;;;2083857;28;20087;-78
2023/11/17 05:01:34;;;;;;;20.15;14.10;;;4.60;99.90;;;;;;2083541;28;20039;-78
2023/11/17 05:02:37;;;;;;;19.98;13.60;;;4.60;99.90;;;;;;2083738;28;20028;-78
2023/11/17 05:03:40;;;;;;;18.60;13.18;;;4.60;99.90;;;;;;2083221;28;20029;-77
2023/11/17 05:04:42;;;;;;;21.80;13.82;;;4.50;99.90;;;;;;2090263;28;20013;-79
2023/11/17 05:05:44;;;;;;;18.67;13.02;;;4.50;99.90;;;;;;2077356;28;20034;-79
2023/11/17 05:06:44;;;;;;;16.73;12.57;;;4.40;99.90;;;;;;2091011;28;20028;-79
2023/11/17 05:07:45;;;;;;;17.65;12.18;;;4.40;99.90;;;;;;2090617;28;20141;-79
2023/11/17 05:08:45;;;;;;;18.67;12.68;;;4.40;99.90;;;;;;2082916;28;20453;-78
2023/11/17 05:09:47;;;;;;;17.98;13.50;;;4.30;99.90;;;;;;2082425;28;20021;-79
2023/11/17 05:10:47;;;;;;;17.17;13.15;;;4.30;99.90;;;;;;2088298;28;20029;-77
2023/11/17 05:11:48;;;;;;;16.13;12.77;;;4.30;99.90;;;;;;2072259;28;20042;-78
2023/11/17 05:12:49;;;;;;;18.40;13.95;;;4.30;99.90;;;;;;2074721;28;20124;-78
2023/11/17 05:13:50;;;;;;;17.70;13.35;;;4.30;99.90;;;;;;2079034;28;20106;-78
2023/11/17 05:14:52;;;;;;;17.85;13.27;;;4.30;99.90;;;;;;2079473;28;20110;-77
2023/11/17 05:15:53;;;;;;;17.67;13.23;;;4.30;99.90;;;;;;2079235;28;20029;-77
2023/11/17 05:16:59;;;;;;;17.52;13.32;;;4.30;99.90;;;;;;2083922;28;20028;-78
2023/11/17 05:18:00;;;;;;;18.70;13.13;;;4.30;99.90;;;;;;2083407;28;20031;-78
2023/11/17 05:19:03;;;;;;;18.95;13.65;;;4.40;99.90;;;;;;2083355;28;20514;-78
2023/11/17 05:20:07;;;;;;;20.83;14.10;;;4.40;99.90;;;;;;2081580;28;20025;-79
2023/11/17 05:21:08;;;;;;;18.92;13.95;;;4.40;99.90;;;;;;2081417;28;20021;-79
2023/11/17 05:22:10;;;;;;;19.33;14.23;;;4.40;99.90;;;;;;2071625;28;20502;-79
2023/11/17 05:23:12;;;;;;;18.08;13.52;;;4.40;99.90;;;;;;2074974;28;20035;-79
2023/11/17 05:24:14;;;;;;;18.10;13.63;;;4.40;99.90;;;;;;2090167;28;20028;-78